createdAt,value
2018-05-15T00:02:24.631Z,12.40
2018-05-15T00:04:50.635Z,12.40
2018-05-15T00:07:17.392Z,12.40
2018-05-15T00:09:44.145Z,12.40
2018-05-15T00:12:10.893Z,12.40
2018-05-15T00:14:36.896Z,12.40
2018-05-15T00:17:02.910Z,12.30
2018-05-15T00:19:28.942Z,12.20
2018-05-15T00:21:54.970Z,12.10
2018-05-15T00:24:20.972Z,11.90
2018-05-15T00:26:46.987Z,11.80
2018-05-15T00:29:12.999Z,11.70
2018-05-15T00:31:39.004Z,11.80
2018-05-15T00:34:05.008Z,11.80
2018-05-15T00:36:31.767Z,11.60
2018-05-15T00:38:58.510Z,11.50
2018-05-15T00:41:24.519Z,11.50
2018-05-15T00:43:50.518Z,11.50
2018-05-15T00:46:16.543Z,11.40
2018-05-15T00:48:42.557Z,11.50
2018-05-15T00:51:09.323Z,11.40
2018-05-15T00:53:35.533Z,11.40
2018-05-15T00:56:03.033Z,11.40
2018-05-15T00:58:29.773Z,11.40
2018-05-15T01:00:56.518Z,11.40
2018-05-15T01:03:23.269Z,11.30
2018-05-15T01:05:49.277Z,11.30
2018-05-15T01:08:15.286Z,11.20
2018-05-15T01:10:47.425Z,11.10
2018-05-15T01:13:14.193Z,11.10
2018-05-15T01:15:40.213Z,11.20
2018-05-15T01:18:06.982Z,11.30
2018-05-15T01:20:33.010Z,11.30
2018-05-15T01:22:59.788Z,11.20
2018-05-15T01:25:25.804Z,11.20
2018-05-15T01:27:52.570Z,11.30
2018-05-15T01:30:18.591Z,11.30
2018-05-15T01:32:44.610Z,11.40
2018-05-15T01:35:10.623Z,11.50
2018-05-15T01:37:36.646Z,11.60
2018-05-15T01:40:02.683Z,11.60
2018-05-15T01:42:28.713Z,11.60
2018-05-15T01:44:54.766Z,11.60
2018-05-15T01:47:20.789Z,11.60
2018-05-15T01:49:46.807Z,11.60
2018-05-15T01:52:12.833Z,11.70
2018-05-15T01:54:38.855Z,11.70
2018-05-15T01:57:04.883Z,11.70
2018-05-15T01:59:31.663Z,11.70
2018-05-15T02:01:57.687Z,11.70
2018-05-15T02:04:23.706Z,11.80
2018-05-15T02:06:50.485Z,11.80
2018-05-15T02:09:16.508Z,11.80
2018-05-15T02:11:42.540Z,11.80
2018-05-15T02:14:08.573Z,11.90
2018-05-15T02:16:34.606Z,11.90
2018-05-15T02:19:00.635Z,11.90
2018-05-15T02:21:27.391Z,11.90
2018-05-15T02:23:53.457Z,11.90
2018-05-15T02:26:19.525Z,11.80
2018-05-15T02:28:45.548Z,11.60
2018-05-15T02:31:11.587Z,11.50
2018-05-15T02:33:37.607Z,11.40
2018-05-15T02:36:03.632Z,11.40
2018-05-15T02:38:29.654Z,11.40
2018-05-15T02:40:55.674Z,11.50
2018-05-15T02:43:21.702Z,11.40
2018-05-15T02:45:48.459Z,11.40
2018-05-15T02:48:15.223Z,11.40
2018-05-15T02:50:41.251Z,11.40
2018-05-15T02:53:08.023Z,11.50
2018-05-15T02:55:34.073Z,11.40
2018-05-15T02:58:00.126Z,11.50
2018-05-15T03:00:26.150Z,11.50
2018-05-15T03:02:52.165Z,11.50
2018-05-15T03:05:18.244Z,11.50
2018-05-15T03:07:44.280Z,11.40
2018-05-15T03:10:10.293Z,11.40
2018-05-15T03:12:36.323Z,11.30
2018-05-15T03:15:02.361Z,11.20
2018-05-15T03:17:28.379Z,11.10
2018-05-15T03:19:54.404Z,11.00
2018-05-15T03:22:20.483Z,10.80
2018-05-15T03:24:46.510Z,10.70
2018-05-15T03:27:12.533Z,10.60
2018-05-15T03:29:38.561Z,10.60
2018-05-15T03:32:04.589Z,10.60
2018-05-15T03:34:30.614Z,10.60
2018-05-15T03:36:56.626Z,10.60
2018-05-15T03:39:24.223Z,10.50
2018-05-15T03:41:50.342Z,10.50
2018-05-15T03:44:17.113Z,10.50
2018-05-15T03:46:43.151Z,10.50
2018-05-15T03:49:09.187Z,10.50
2018-05-15T03:51:35.218Z,10.40
2018-05-15T03:54:01.259Z,10.50
2018-05-15T03:56:34.205Z,10.40
2018-05-15T03:59:00.257Z,10.40
2018-05-15T04:01:38.786Z,10.40
2018-05-15T04:04:17.149Z,10.40
2018-05-15T04:06:55.611Z,10.40
2018-05-15T04:09:21.645Z,10.40
2018-05-15T04:11:47.687Z,10.40
2018-05-15T04:14:13.714Z,10.40
2018-05-15T04:16:39.725Z,10.50
2018-05-15T04:19:05.746Z,10.50
2018-05-15T04:21:31.765Z,10.60
2018-05-15T04:23:58.545Z,10.70
2018-05-15T04:26:24.629Z,10.70
2018-05-15T04:28:50.659Z,10.90
2018-05-15T04:31:16.683Z,11.00
2018-05-15T04:33:42.733Z,11.10
2018-05-15T04:36:08.756Z,11.30
2018-05-15T04:38:34.801Z,11.40
2018-05-15T04:41:00.830Z,11.40
2018-05-15T04:43:26.862Z,11.40
2018-05-15T04:45:52.889Z,11.50
2018-05-15T04:48:18.905Z,11.50
2018-05-15T04:50:44.929Z,11.60
2018-05-15T04:53:10.947Z,11.70
2018-05-15T04:55:37.789Z,11.90
2018-05-15T04:58:03.757Z,11.90
2018-05-15T05:00:29.780Z,11.90
2018-05-15T05:02:56.539Z,12.00
2018-05-15T05:05:22.621Z,12.00
2018-05-15T05:07:48.625Z,12.10
2018-05-15T05:10:14.638Z,12.30
2018-05-15T05:12:41.392Z,12.30
2018-05-15T05:15:08.150Z,12.20
2018-05-15T05:17:34.158Z,12.20
2018-05-15T05:20:00.185Z,12.10
2018-05-15T05:22:26.210Z,12.00
2018-05-15T05:24:52.225Z,12.10
2018-05-15T05:27:18.231Z,12.00
2018-05-15T05:29:44.263Z,11.90
2018-05-15T05:32:11.009Z,11.80
2018-05-15T05:34:37.763Z,11.90
2018-05-15T05:37:04.520Z,12.20
2018-05-15T05:39:31.331Z,12.30
2018-05-15T05:41:57.467Z,12.30
2018-05-15T05:44:23.507Z,12.40
2018-05-15T05:46:49.510Z,12.50
2018-05-15T05:49:15.521Z,12.40
2018-05-15T05:51:42.308Z,12.40
2018-05-15T05:54:08.362Z,12.40
2018-05-15T05:56:34.385Z,12.30
2018-05-15T05:59:00.381Z,12.30
2018-05-15T06:01:27.137Z,12.10
2018-05-15T06:03:53.150Z,12.10
2018-05-15T06:06:19.195Z,12.10
2018-05-15T06:08:45.959Z,12.10
2018-05-15T06:11:12.726Z,12.20
2018-05-15T06:13:38.766Z,12.10
2018-05-15T06:16:04.791Z,12.30
2018-05-15T06:18:30.820Z,12.40
2018-05-15T06:20:57.674Z,12.70
2018-05-15T06:23:23.625Z,12.70
2018-05-15T06:25:49.654Z,12.70
2018-05-15T06:28:15.749Z,12.60
2018-05-15T06:30:41.769Z,12.50
2018-05-15T06:33:07.786Z,12.40
2018-05-15T06:35:33.827Z,12.30
2018-05-15T06:37:59.874Z,12.20
2018-05-15T06:40:25.883Z,12.10
2018-05-15T06:42:51.969Z,12.00
2018-05-15T06:45:18.011Z,11.90
2018-05-15T06:47:44.032Z,11.80
2018-05-15T06:50:10.053Z,11.60
2018-05-15T06:52:36.077Z,11.50
2018-05-15T06:55:02.105Z,11.40
2018-05-15T06:57:28.127Z,11.30
2018-05-15T06:59:54.302Z,11.20
2018-05-15T07:02:20.329Z,11.20
2018-05-15T07:04:46.401Z,11.10
2018-05-15T07:07:12.438Z,11.20
2018-05-15T07:09:38.467Z,11.20
2018-05-15T07:12:04.498Z,11.20
2018-05-15T07:14:30.522Z,11.30
2018-05-15T07:16:56.556Z,11.40
2018-05-15T07:19:22.621Z,11.50
2018-05-15T07:21:48.642Z,11.70
2018-05-15T07:24:14.653Z,11.80
2018-05-15T07:26:40.677Z,12.10
2018-05-15T07:29:06.693Z,12.80
2018-05-15T07:31:32.744Z,14.40
2018-05-15T07:33:58.759Z,15.70
2018-05-15T07:36:25.514Z,18.60
2018-05-15T07:38:52.273Z,19.10
2018-05-15T07:41:18.310Z,19.00
2018-05-15T07:43:45.083Z,18.50
2018-05-15T07:46:11.105Z,18.50
2018-05-15T07:48:37.122Z,18.50
2018-05-15T07:51:03.891Z,20.00
2018-05-15T07:53:29.913Z,20.00
2018-05-15T07:55:56.677Z,20.20
2018-05-15T07:58:23.450Z,20.80
2018-05-15T08:00:49.474Z,20.80
2018-05-15T08:03:21.718Z,21.60
2018-05-15T08:05:47.754Z,21.90
2018-05-15T08:08:13.786Z,22.10
2018-05-15T08:10:39.802Z,22.60
2018-05-15T08:13:05.818Z,23.10
2018-05-15T08:15:31.844Z,23.20
2018-05-15T08:17:57.877Z,23.40
2018-05-15T08:20:23.895Z,23.30
2018-05-15T08:22:50.657Z,23.20
2018-05-15T08:25:16.684Z,23.20
2018-05-15T08:27:43.449Z,24.30
2018-05-15T08:30:09.471Z,24.30
2018-05-15T08:32:36.236Z,24.40
2018-05-15T08:35:02.266Z,24.40
2018-05-15T08:37:29.087Z,24.70
2018-05-15T08:39:55.074Z,24.70
2018-05-15T08:42:21.103Z,25.40
2018-05-15T08:44:47.123Z,25.10
2018-05-15T08:47:13.905Z,24.10
2018-05-15T08:49:39.934Z,24.10
2018-05-15T08:52:05.974Z,24.80
2018-05-15T08:54:32.004Z,25.50
2018-05-15T08:56:58.027Z,26.20
2018-05-15T08:59:24.062Z,26.80
2018-05-15T09:01:50.078Z,26.80
2018-05-15T09:04:16.105Z,25.90
2018-05-15T09:06:42.140Z,25.40
2018-05-15T09:09:08.182Z,25.10
2018-05-15T09:11:34.204Z,24.80
2018-05-15T09:14:00.247Z,25.20
2018-05-15T09:16:26.258Z,25.30
2018-05-15T09:18:52.321Z,25.70
2018-05-15T09:21:18.359Z,26.10
2018-05-15T09:23:45.140Z,26.00
2018-05-15T09:26:11.900Z,24.50
2018-05-15T09:28:37.930Z,24.50
2018-05-15T09:31:04.701Z,25.50
2018-05-15T09:33:30.764Z,25.50
2018-05-15T09:35:56.810Z,25.60
2018-05-15T09:38:22.836Z,25.70
2018-05-15T09:40:48.853Z,26.40
2018-05-15T09:43:28.144Z,27.10
2018-05-15T09:45:54.177Z,27.40
2018-05-15T09:48:20.223Z,27.90
2018-05-15T09:50:46.241Z,27.60
2018-05-15T09:53:12.265Z,26.90
2018-05-15T09:55:38.302Z,26.20
2018-05-15T09:58:04.347Z,26.30
2018-05-15T10:00:32.394Z,27.00
2018-05-15T10:02:58.499Z,27.80
2018-05-15T10:05:25.269Z,28.60
2018-05-15T10:07:52.046Z,29.20
2018-05-15T10:10:18.098Z,29.10
2018-05-15T10:12:44.131Z,29.30
2018-05-15T10:15:10.163Z,29.20
2018-05-15T10:17:36.198Z,29.00
2018-05-15T10:20:02.279Z,29.20
2018-05-15T10:22:28.277Z,29.50
2018-05-15T10:24:54.306Z,28.00
2018-05-15T10:27:20.338Z,26.80
2018-05-15T10:29:46.376Z,25.80
2018-05-15T10:32:12.426Z,24.60
2018-05-15T10:34:38.437Z,24.00
2018-05-15T10:37:04.463Z,24.40
2018-05-15T10:39:30.494Z,26.30
2018-05-15T10:41:56.539Z,27.60
2018-05-15T10:44:22.569Z,28.50
2018-05-15T10:46:48.589Z,27.70
2018-05-15T10:49:15.433Z,24.20
2018-05-15T10:51:41.998Z,24.10
2018-05-15T10:54:08.770Z,22.90
2018-05-15T10:56:34.805Z,22.80
2018-05-15T10:59:00.839Z,22.60
2018-05-15T11:01:26.854Z,21.90
2018-05-15T11:03:53.647Z,22.90
2018-05-15T11:06:19.666Z,22.90
2018-05-15T11:08:45.694Z,23.30
2018-05-15T11:11:11.796Z,23.00
2018-05-15T11:13:37.824Z,21.90
2018-05-15T11:16:03.853Z,21.50
2018-05-15T11:21:49.772Z,24.00
2018-05-15T11:24:29.044Z,25.30
2018-05-15T11:26:55.038Z,25.70
2018-05-15T11:29:21.050Z,25.40
2018-05-15T11:31:47.861Z,24.40
2018-05-15T11:34:13.921Z,24.40
2018-05-15T11:36:39.970Z,24.00
2018-05-15T11:39:05.998Z,24.40
2018-05-15T11:41:32.127Z,24.60
2018-05-15T11:43:58.141Z,25.10
2018-05-15T11:46:24.160Z,25.20
2018-05-15T11:48:50.808Z,25.00
2018-05-15T11:51:17.123Z,24.80
2018-05-15T11:53:42.303Z,25.30
2018-05-15T11:56:08.329Z,25.90
2018-05-15T11:58:34.349Z,26.00
2018-05-15T12:01:00.382Z,26.20
2018-05-15T12:03:26.399Z,26.00
2018-05-15T12:05:52.442Z,25.90
2018-05-15T12:08:18.557Z,26.00
2018-05-15T12:10:44.501Z,26.50
2018-05-15T12:13:10.524Z,27.30
2018-05-15T12:15:37.317Z,26.10
2018-05-15T12:18:03.348Z,26.10
2018-05-15T12:20:29.381Z,26.20
2018-05-15T12:22:55.404Z,26.10
2018-05-15T12:25:21.427Z,26.40
2018-05-15T12:27:48.194Z,27.00
2018-05-15T12:30:14.219Z,27.00
2018-05-15T12:32:40.322Z,27.10
2018-05-15T12:35:06.370Z,26.80
2018-05-15T12:37:33.135Z,25.40
2018-05-15T12:39:59.889Z,24.90
2018-05-15T12:42:26.652Z,24.60
2018-05-15T12:44:53.453Z,25.30
2018-05-15T12:47:19.502Z,25.30
2018-05-15T12:49:45.534Z,25.30
2018-05-15T12:52:11.579Z,25.40
2018-05-15T12:54:37.621Z,25.40
2018-05-15T12:57:05.383Z,23.80
2018-05-15T12:59:31.413Z,23.80
2018-05-15T13:01:57.442Z,24.00
2018-05-15T13:04:23.457Z,24.50
2018-05-15T13:06:49.506Z,24.80
2018-05-15T13:09:15.529Z,25.30
2018-05-15T13:11:41.576Z,25.90
2018-05-15T13:14:07.610Z,26.10
2018-05-15T13:16:33.699Z,26.20
2018-05-15T13:18:59.726Z,25.80
2018-05-15T13:21:25.757Z,25.80
2018-05-15T13:23:53.280Z,25.10
2018-05-15T13:26:19.318Z,25.10
2018-05-15T13:28:45.357Z,25.00
2018-05-15T13:31:11.405Z,24.90
2018-05-15T13:33:37.433Z,25.30
2018-05-15T13:36:03.464Z,25.60
2018-05-15T13:38:29.486Z,25.40
2018-05-15T13:40:55.511Z,25.50
2018-05-15T13:43:22.312Z,25.60
2018-05-15T13:45:48.316Z,25.50
2018-05-15T13:48:14.349Z,25.60
2018-05-15T13:50:40.385Z,25.60
2018-05-15T13:53:06.415Z,25.90
2018-05-15T13:55:32.504Z,25.90
2018-05-15T13:57:59.252Z,26.10
2018-05-15T14:00:26.092Z,26.30
2018-05-15T14:02:52.127Z,26.40
2018-05-15T14:05:18.163Z,26.70
2018-05-15T14:07:44.193Z,27.00
2018-05-15T14:10:10.221Z,26.90
2018-05-15T14:12:36.317Z,27.00
2018-05-15T14:15:02.341Z,26.80
2018-05-15T14:17:28.370Z,26.50
2018-05-15T14:19:55.127Z,25.80
2018-05-15T14:22:21.159Z,25.80
2018-05-15T14:24:48.096Z,25.70
2018-05-15T14:27:13.970Z,25.70
2018-05-15T14:29:39.995Z,26.00
2018-05-15T14:32:06.024Z,26.50
2018-05-15T14:34:32.042Z,26.80
2018-05-15T14:36:58.818Z,26.30
2018-05-15T14:39:24.872Z,26.20
2018-05-15T14:42:03.638Z,25.60
2018-05-15T14:44:29.661Z,25.10
2018-05-15T14:46:55.685Z,24.50
2018-05-15T14:49:21.710Z,24.20
2018-05-15T14:51:47.729Z,23.90
2018-05-15T14:54:13.773Z,23.60
2018-05-15T14:56:39.794Z,23.70
2018-05-15T14:59:06.566Z,24.60
2018-05-15T15:01:32.596Z,24.60
2018-05-15T15:03:58.627Z,24.50
2018-05-15T15:06:24.660Z,25.10
2018-05-15T15:08:50.705Z,25.50
2018-05-15T15:11:16.734Z,25.00
2018-05-15T15:13:42.764Z,25.10
2018-05-15T15:16:08.784Z,24.30
2018-05-15T15:18:35.565Z,23.10
2018-05-15T15:21:01.574Z,23.00
2018-05-15T15:23:28.332Z,24.00
2018-05-15T15:25:55.082Z,24.10
2018-05-15T15:28:21.839Z,24.40
2018-05-15T15:30:47.866Z,24.30
2018-05-15T15:33:14.712Z,23.50
2018-05-15T15:35:40.735Z,23.40
2018-05-15T15:38:06.756Z,22.60
2018-05-15T15:40:32.770Z,22.10
2018-05-15T15:42:58.817Z,21.90
2018-05-15T15:45:24.852Z,21.50
2018-05-15T15:47:50.873Z,21.00
2018-05-15T15:50:16.968Z,20.60
2018-05-15T15:52:42.906Z,20.20
2018-05-15T15:55:09.666Z,19.70
2018-05-15T15:57:36.434Z,19.50
2018-05-15T16:00:02.502Z,19.50
2018-05-15T16:02:28.541Z,19.20
2018-05-15T16:04:54.574Z,19.00
2018-05-15T16:07:20.597Z,18.60
2018-05-15T16:09:46.674Z,18.40
2018-05-15T16:12:12.670Z,18.20
2018-05-15T16:14:38.711Z,18.10
2018-05-15T16:17:04.781Z,18.00
2018-05-15T16:19:30.815Z,18.00
2018-05-15T16:21:56.842Z,18.00
2018-05-15T16:24:22.869Z,18.00
2018-05-15T16:26:48.893Z,18.10
2018-05-15T16:29:14.918Z,18.30
2018-05-15T16:31:40.939Z,18.30
2018-05-15T16:34:06.971Z,18.40
2018-05-15T16:36:32.994Z,18.30
2018-05-15T16:38:59.754Z,18.20
2018-05-15T16:41:25.785Z,18.30
2018-05-15T16:43:51.810Z,18.20
2018-05-15T16:46:18.573Z,18.00
2018-05-15T16:48:44.605Z,18.00
2018-05-15T16:51:11.370Z,17.80
2018-05-15T16:53:37.394Z,17.80
2018-05-15T16:56:03.423Z,17.70
2018-05-15T16:58:30.186Z,17.50
2018-05-15T17:00:56.282Z,17.50
2018-05-15T17:03:22.302Z,17.40
2018-05-15T17:05:48.322Z,17.40
2018-05-15T17:08:14.813Z,17.30
2018-05-15T17:10:40.813Z,17.20
2018-05-15T17:13:06.844Z,17.10
2018-05-15T17:15:32.849Z,17.10
2018-05-15T17:17:58.940Z,17.00
2018-05-15T17:20:25.733Z,16.60
2018-05-15T17:22:51.759Z,16.60
2018-05-15T17:25:18.530Z,16.10
2018-05-15T17:27:44.550Z,16.00
2018-05-15T17:30:11.360Z,15.50
2018-05-15T17:32:37.374Z,15.40
2018-05-15T17:35:03.396Z,15.10
2018-05-15T17:37:29.403Z,14.80
2018-05-15T17:39:56.155Z,14.10
2018-05-15T17:42:22.902Z,13.60
2018-05-15T17:44:49.666Z,13.20
2018-05-15T17:47:16.420Z,12.90
2018-05-15T17:49:42.438Z,12.90
2018-05-15T17:52:08.458Z,12.70
2018-05-15T17:54:34.466Z,12.60
2018-05-15T17:57:00.475Z,12.50
2018-05-15T17:59:26.526Z,12.50
2018-05-15T18:01:52.529Z,12.50
2018-05-15T18:04:19.290Z,12.40
2018-05-15T18:06:45.330Z,12.30
2018-05-15T18:09:11.359Z,12.30
2018-05-15T18:11:37.369Z,12.30
2018-05-15T18:14:03.478Z,12.30
2018-05-15T18:16:29.495Z,12.30
2018-05-15T18:18:55.503Z,12.30
2018-05-15T18:21:21.634Z,12.30
2018-05-15T18:23:47.630Z,12.30
2018-05-15T18:26:13.647Z,12.30
2018-05-15T18:28:39.799Z,12.40
2018-05-15T18:31:06.527Z,12.40
2018-05-15T18:33:32.546Z,12.40
2018-05-15T18:35:58.694Z,12.40
2018-05-15T18:38:24.704Z,12.40
2018-05-15T18:40:51.497Z,12.30
2018-05-15T18:43:17.561Z,12.30
2018-05-15T18:45:43.843Z,12.30
2018-05-15T18:48:09.868Z,12.20
2018-05-15T18:50:36.637Z,12.00
2018-05-15T18:53:02.710Z,12.00
2018-05-15T18:55:28.754Z,12.00
2018-05-15T18:57:55.796Z,11.90
2018-05-15T19:00:21.990Z,11.90
2018-05-15T19:02:47.934Z,11.90
2018-05-15T19:05:14.766Z,11.90
2018-05-15T19:07:40.859Z,11.90
2018-05-15T19:10:06.913Z,11.90
2018-05-15T19:12:32.958Z,11.90
2018-05-15T19:14:58.987Z,11.90
2018-05-15T19:17:25.031Z,11.90
2018-05-15T19:19:51.061Z,11.90
2018-05-15T19:22:17.102Z,12.00
2018-05-15T19:24:43.173Z,12.00
2018-05-15T19:27:09.985Z,11.90
2018-05-15T19:29:36.029Z,11.90
2018-05-15T19:32:08.253Z,11.90
2018-05-15T19:34:35.097Z,11.90
2018-05-15T19:37:08.026Z,11.80
2018-05-15T19:39:34.068Z,11.80
2018-05-15T19:42:00.113Z,11.80
2018-05-15T19:44:26.283Z,11.70
2018-05-15T19:46:52.455Z,11.70
2018-05-15T19:49:19.257Z,11.60
2018-05-15T19:51:45.298Z,11.60
2018-05-15T19:54:11.322Z,11.60
2018-05-15T19:56:37.423Z,11.70
2018-05-15T19:59:03.521Z,11.70
2018-05-15T20:01:29.550Z,11.70
2018-05-15T20:03:55.587Z,11.70
2018-05-15T20:06:21.742Z,11.70
2018-05-15T20:08:47.770Z,11.70
2018-05-15T20:11:15.270Z,11.70
2018-05-15T20:13:42.028Z,11.70
2018-05-15T20:16:08.958Z,11.70
2018-05-15T20:18:35.183Z,11.70
2018-05-15T20:21:01.206Z,11.70
2018-05-15T20:23:27.226Z,11.70
2018-05-15T20:25:53.250Z,11.70
2018-05-15T20:28:19.261Z,11.70
2018-05-15T20:30:46.038Z,11.70
2018-05-15T20:33:12.058Z,11.70
2018-05-15T20:35:38.817Z,11.70
2018-05-15T20:38:05.582Z,11.70
2018-05-15T20:40:31.606Z,11.70
2018-05-15T20:42:57.640Z,11.80
2018-05-15T20:45:24.474Z,11.80
2018-05-15T20:47:51.331Z,11.80
2018-05-15T20:50:17.354Z,11.80
2018-05-15T20:52:43.430Z,11.70
2018-05-15T20:55:09.521Z,11.70
2018-05-15T20:57:35.553Z,11.70
2018-05-15T21:00:01.718Z,11.60
2018-05-15T21:02:28.582Z,11.60
2018-05-15T21:04:55.346Z,11.50
2018-05-15T21:07:21.395Z,11.50
2018-05-15T21:09:47.409Z,11.50
2018-05-15T21:12:14.181Z,11.40
2018-05-15T21:14:40.222Z,11.40
2018-05-15T21:17:06.315Z,11.30
2018-05-15T21:19:32.374Z,11.20
2018-05-15T21:21:59.311Z,11.20
2018-05-15T21:24:25.209Z,11.20
2018-05-15T21:26:51.234Z,11.20
2018-05-15T21:29:17.250Z,11.20
2018-05-15T21:31:43.278Z,11.20
2018-05-15T21:34:09.299Z,11.20
2018-05-15T21:36:36.057Z,11.10
2018-05-15T21:39:02.833Z,11.10
2018-05-15T21:41:28.849Z,11.10
2018-05-15T21:43:55.602Z,11.10
2018-05-15T21:46:22.358Z,11.10
2018-05-15T21:48:48.368Z,11.10
2018-05-15T21:51:14.380Z,11.10
2018-05-15T21:53:40.393Z,11.10
2018-05-15T21:56:06.409Z,11.20
2018-05-15T21:58:32.423Z,11.20
2018-05-15T22:00:59.242Z,11.20
2018-05-15T22:03:25.312Z,11.20
2018-05-15T22:05:52.091Z,11.20
2018-05-15T22:08:18.126Z,11.20
2018-05-15T22:10:44.157Z,11.20
2018-05-15T22:13:22.449Z,11.20
2018-05-15T22:16:00.986Z,11.20
2018-05-15T22:18:40.309Z,11.10
2018-05-15T22:21:18.812Z,11.10
2018-05-15T22:23:44.703Z,11.10
2018-05-15T22:26:11.449Z,11.00
2018-05-15T22:28:38.208Z,10.90
2018-05-15T22:31:04.966Z,10.90
2018-05-15T22:33:30.994Z,10.90
2018-05-15T22:35:57.790Z,10.80
2018-05-15T22:38:23.810Z,10.80
2018-05-15T22:40:49.838Z,10.80
2018-05-15T22:43:15.865Z,10.80
2018-05-15T22:45:41.875Z,10.80
2018-05-15T22:48:07.889Z,10.80
2018-05-15T22:50:33.899Z,10.80
2018-05-15T22:52:59.922Z,10.80
2018-05-15T22:55:26.851Z,10.70
2018-05-15T22:57:53.600Z,10.70
2018-05-15T23:00:20.418Z,10.60
2018-05-15T23:02:46.432Z,10.60
2018-05-15T23:05:12.460Z,10.60
2018-05-15T23:07:38.473Z,10.50
2018-05-15T23:10:12.274Z,10.40
2018-05-15T23:12:39.034Z,10.40
2018-05-15T23:15:05.799Z,10.50
2018-05-15T23:17:32.557Z,10.50
2018-05-15T23:19:58.585Z,10.50
2018-05-15T23:22:44.232Z,10.60
2018-05-15T23:25:10.316Z,10.60
2018-05-15T23:27:37.090Z,10.70
2018-05-15T23:30:03.145Z,10.70
2018-05-15T23:32:29.172Z,10.70
2018-05-15T23:34:55.201Z,10.70
2018-05-15T23:37:21.218Z,10.70
2018-05-15T23:39:47.247Z,10.80
2018-05-15T23:42:14.005Z,10.80
2018-05-15T23:44:40.058Z,10.80
2018-05-15T23:47:06.081Z,10.80
2018-05-15T23:49:32.113Z,10.90
2018-05-15T23:51:58.142Z,10.90
2018-05-15T23:54:24.934Z,10.90
2018-05-15T23:56:50.937Z,10.90
2018-05-15T23:59:16.968Z,10.90
